createdAt,value
2017-11-13T00:01:36.787Z,4.40
2017-11-13T00:04:03.002Z,4.50
2017-11-13T00:06:29.253Z,4.40
2017-11-13T00:08:55.537Z,4.40
2017-11-13T00:11:21.816Z,4.50
2017-11-13T00:13:47.993Z,4.50
2017-11-13T00:16:15.039Z,4.60
2017-11-13T00:18:42.051Z,4.50
2017-11-13T00:21:08.335Z,4.50
2017-11-13T00:23:34.555Z,4.50
2017-11-13T00:26:00.892Z,4.50
2017-11-13T00:28:27.144Z,4.50
2017-11-13T00:30:53.425Z,4.50
2017-11-13T00:33:20.424Z,4.60
2017-11-13T00:35:46.609Z,4.50
2017-11-13T00:38:13.568Z,4.60
2017-11-13T00:40:39.851Z,4.60
2017-11-13T00:43:06.813Z,4.50
2017-11-13T00:45:33.856Z,4.50
2017-11-13T00:48:00.061Z,4.60
2017-11-13T00:50:26.351Z,4.60
2017-11-13T00:52:52.570Z,4.50
2017-11-13T00:55:19.517Z,4.50
2017-11-13T00:57:45.736Z,4.50
2017-11-13T01:00:12.739Z,4.50
2017-11-13T01:02:39.985Z,4.40
2017-11-13T01:05:06.526Z,4.40
2017-11-13T01:07:32.803Z,4.50
2017-11-13T01:09:59.050Z,4.50
2017-11-13T01:12:26.222Z,4.50
2017-11-13T01:14:52.472Z,4.50
2017-11-13T01:17:18.743Z,4.50
2017-11-13T01:19:44.961Z,4.50
2017-11-13T01:22:11.165Z,4.60
2017-11-13T01:24:37.470Z,4.50
2017-11-13T01:27:03.742Z,4.60
2017-11-13T01:29:29.969Z,4.60
2017-11-13T01:31:56.284Z,4.60
2017-11-13T01:34:22.488Z,4.60
2017-11-13T01:36:48.755Z,4.60
2017-11-13T01:39:15.037Z,4.60
2017-11-13T01:41:41.352Z,4.60
2017-11-13T01:44:08.385Z,4.40
2017-11-13T01:46:34.629Z,4.40
2017-11-13T01:49:02.983Z,4.50
2017-11-13T01:51:29.307Z,4.50
2017-11-13T01:53:56.274Z,4.60
2017-11-13T01:56:22.513Z,4.60
2017-11-13T01:58:49.540Z,4.60
2017-11-13T02:01:16.779Z,4.60
2017-11-13T02:03:43.088Z,4.60
2017-11-13T02:06:09.430Z,4.70
2017-11-13T02:08:35.715Z,4.70
2017-11-13T02:11:02.657Z,4.70
2017-11-13T02:13:29.660Z,4.60
2017-11-13T02:15:55.896Z,4.60
2017-11-13T02:18:22.181Z,4.70
2017-11-13T02:20:48.452Z,4.60
2017-11-13T02:23:14.773Z,4.60
2017-11-13T02:25:41.076Z,4.60
2017-11-13T02:28:07.408Z,4.70
2017-11-13T02:30:33.733Z,4.60
2017-11-13T02:32:59.942Z,4.70
2017-11-13T02:35:26.938Z,4.70
2017-11-13T02:37:53.158Z,4.70
2017-11-13T02:40:21.078Z,4.70
2017-11-13T02:42:48.112Z,4.70
2017-11-13T02:45:15.357Z,4.70
2017-11-13T02:47:43.524Z,4.60
2017-11-13T02:50:09.832Z,4.60
2017-11-13T02:52:39.373Z,4.60
2017-11-13T02:55:06.827Z,4.60
2017-11-13T02:57:33.304Z,4.60
2017-11-13T03:00:01.313Z,4.70
2017-11-13T03:02:27.548Z,4.60
2017-11-13T03:04:53.808Z,4.60
2017-11-13T03:07:20.878Z,4.60
2017-11-13T03:09:50.100Z,4.60
2017-11-13T03:12:18.083Z,4.60
2017-11-13T03:14:46.224Z,4.60
2017-11-13T03:17:16.104Z,4.60
2017-11-13T03:19:43.810Z,4.60
2017-11-13T03:22:11.350Z,4.60
2017-11-13T03:24:40.681Z,4.60
2017-11-13T03:27:10.534Z,4.60
2017-11-13T03:29:36.930Z,4.70
2017-11-13T03:32:03.263Z,4.60
2017-11-13T03:34:29.474Z,4.70
2017-11-13T03:39:28.067Z,4.70
2017-11-13T03:41:54.337Z,4.60
2017-11-13T03:44:21.303Z,4.70
2017-11-13T03:46:47.526Z,4.70
2017-11-13T03:49:14.499Z,4.70
2017-11-13T03:51:40.698Z,4.70
2017-11-13T03:54:07.628Z,4.70
2017-11-13T03:56:33.815Z,4.70
2017-11-13T03:59:00.068Z,4.70
2017-11-13T04:01:26.316Z,4.70
2017-11-13T04:03:52.597Z,4.60
2017-11-13T04:06:18.806Z,4.60
2017-11-13T04:08:45.728Z,4.70
2017-11-13T04:11:12.020Z,4.70
2017-11-13T04:13:38.288Z,4.70
2017-11-13T04:16:04.545Z,4.80
2017-11-13T04:18:30.800Z,4.70
2017-11-13T04:20:57.893Z,4.80
2017-11-13T04:23:24.154Z,4.70
2017-11-13T04:25:51.110Z,4.70
2017-11-13T04:28:20.567Z,4.70
2017-11-13T04:30:47.508Z,4.80
2017-11-13T04:33:14.527Z,4.80
2017-11-13T04:35:41.373Z,4.80
2017-11-13T04:38:07.593Z,4.80
2017-11-13T04:40:33.841Z,4.80
2017-11-13T04:43:00.081Z,4.80
2017-11-13T04:45:27.065Z,4.70
2017-11-13T04:47:53.342Z,4.70
2017-11-13T04:50:21.224Z,4.60
2017-11-13T04:52:48.208Z,4.60
2017-11-13T04:55:15.141Z,4.60
2017-11-13T05:00:45.156Z,4.60
2017-11-13T05:03:12.015Z,4.50
2017-11-13T05:05:38.271Z,4.50
2017-11-13T05:08:04.561Z,4.40
2017-11-13T05:10:30.864Z,4.50
2017-11-13T05:12:57.132Z,4.50
2017-11-13T05:15:24.153Z,4.60
2017-11-13T05:17:50.480Z,4.60
2017-11-13T05:20:16.717Z,4.60
2017-11-13T05:22:42.965Z,4.60
2017-11-13T05:25:09.978Z,4.70
2017-11-13T05:27:36.179Z,4.70
2017-11-13T05:30:02.473Z,4.70
2017-11-13T05:32:29.441Z,4.70
2017-11-13T05:34:56.731Z,4.70
2017-11-13T05:37:22.932Z,4.60
2017-11-13T05:39:49.209Z,4.60
2017-11-13T05:42:16.176Z,4.80
2017-11-13T05:44:42.375Z,4.80
2017-11-13T05:47:08.568Z,4.80
2017-11-13T05:49:34.763Z,4.80
2017-11-13T05:52:01.744Z,4.90
2017-11-13T05:54:27.960Z,4.90
2017-11-13T05:56:54.190Z,4.80
2017-11-13T05:59:20.471Z,4.90
2017-11-13T06:01:46.683Z,4.90
2017-11-13T06:04:13.017Z,4.90
2017-11-13T06:06:39.249Z,4.90
2017-11-13T06:09:08.478Z,4.90
2017-11-13T06:11:36.360Z,4.80
2017-11-13T06:14:02.641Z,4.80
2017-11-13T06:16:29.800Z,4.90
2017-11-13T06:18:55.996Z,4.90
2017-11-13T06:21:22.236Z,4.80
2017-11-13T06:23:48.460Z,4.90
2017-11-13T06:26:14.683Z,4.90
2017-11-13T06:28:40.913Z,4.90
2017-11-13T06:31:09.903Z,4.90
2017-11-13T06:33:42.002Z,4.90
2017-11-13T06:36:08.956Z,4.90
2017-11-13T06:38:35.941Z,4.90
2017-11-13T06:41:02.157Z,4.90
2017-11-13T06:43:28.361Z,4.90
2017-11-13T06:45:54.591Z,4.80
2017-11-13T06:48:20.768Z,4.80
2017-11-13T06:50:47.231Z,4.70
2017-11-13T06:53:14.955Z,4.50
2017-11-13T06:55:42.817Z,4.60
2017-11-13T06:58:10.910Z,4.50
2017-11-13T07:00:37.129Z,4.50
2017-11-13T07:03:03.378Z,4.40
2017-11-13T07:05:29.606Z,4.30
2017-11-13T07:07:55.789Z,4.50
2017-11-13T07:10:22.784Z,4.60
2017-11-13T07:12:48.998Z,4.60
2017-11-13T07:15:15.214Z,4.70
2017-11-13T07:17:41.429Z,4.70
2017-11-13T07:20:07.623Z,4.70
2017-11-13T07:22:33.898Z,4.80
2017-11-13T07:25:00.117Z,4.70
2017-11-13T07:27:26.352Z,4.80
2017-11-13T07:29:52.589Z,4.60
2017-11-13T07:32:18.852Z,4.60
2017-11-13T07:34:45.848Z,4.60
2017-11-13T07:37:12.097Z,4.60
2017-11-13T07:39:38.372Z,4.60
2017-11-13T07:42:05.426Z,4.60
2017-11-13T07:44:32.405Z,4.60
2017-11-13T07:46:58.983Z,4.60
2017-11-13T07:49:25.241Z,4.60
2017-11-13T07:51:52.197Z,4.80
2017-11-13T07:54:19.171Z,4.90
2017-11-13T07:56:45.356Z,4.90
2017-11-13T07:59:12.361Z,5.20
2017-11-13T08:01:38.618Z,5.20
2017-11-13T08:04:06.741Z,5.40
2017-11-13T08:06:32.954Z,5.40
2017-11-13T08:08:59.950Z,5.50
2017-11-13T08:11:29.494Z,5.50
2017-11-13T08:13:56.516Z,5.20
2017-11-13T08:16:23.676Z,5.20
2017-11-13T08:18:49.882Z,5.20
2017-11-13T08:21:16.167Z,5.30
2017-11-13T08:23:43.252Z,5.30
2017-11-13T08:26:09.531Z,5.30
2017-11-13T08:28:35.856Z,5.30
2017-11-13T08:31:03.788Z,5.30
2017-11-13T08:33:30.837Z,5.40
2017-11-13T08:35:57.173Z,5.40
2017-11-13T08:38:23.507Z,5.50
2017-11-13T08:40:50.500Z,5.60
2017-11-13T08:43:16.641Z,5.60
2017-11-13T08:45:43.936Z,5.70
2017-11-13T08:48:10.981Z,5.80
2017-11-13T08:50:38.846Z,6.00
2017-11-13T08:53:05.017Z,6.00
2017-11-13T08:55:31.241Z,6.00
2017-11-13T08:57:57.488Z,6.10
2017-11-13T09:00:23.742Z,6.20
2017-11-13T09:02:49.988Z,6.20
2017-11-13T09:05:17.010Z,6.20
2017-11-13T09:07:43.217Z,6.20
2017-11-13T09:10:09.447Z,6.30
2017-11-13T09:12:35.681Z,6.30
2017-11-13T09:15:01.922Z,6.30
2017-11-13T09:17:28.128Z,6.30
2017-11-13T09:19:54.409Z,6.30
2017-11-13T09:22:21.432Z,6.30
2017-11-13T09:24:48.212Z,6.30
2017-11-13T09:27:14.410Z,6.40
2017-11-13T09:29:40.617Z,6.40
2017-11-13T09:32:07.005Z,6.40
2017-11-13T09:34:36.460Z,6.40
2017-11-13T09:37:02.682Z,6.40
2017-11-13T09:39:28.920Z,6.40
2017-11-13T09:41:55.150Z,6.40
2017-11-13T09:44:23.589Z,6.50
2017-11-13T09:46:51.928Z,6.40
2017-11-13T09:49:20.113Z,6.40
2017-11-13T09:51:47.655Z,6.40
2017-11-13T09:54:13.936Z,6.50
2017-11-13T09:56:42.953Z,6.40
2017-11-13T09:59:09.213Z,6.40
2017-11-13T10:01:35.438Z,6.40
2017-11-13T10:04:02.210Z,6.40
2017-11-13T10:06:29.748Z,6.50
2017-11-13T10:08:56.762Z,6.70
2017-11-13T10:11:23.957Z,6.60
2017-11-13T10:13:52.096Z,6.70
2017-11-13T10:16:18.905Z,6.80
2017-11-13T10:18:47.980Z,6.90
2017-11-13T10:21:14.299Z,6.90
2017-11-13T10:23:44.104Z,6.80
2017-11-13T10:26:11.889Z,6.80
2017-11-13T10:28:38.912Z,6.80
2017-11-13T10:31:06.116Z,6.80
2017-11-13T10:33:32.396Z,6.70
2017-11-13T10:35:59.590Z,6.70
2017-11-13T10:38:25.835Z,6.90
2017-11-13T10:40:52.062Z,7.00
2017-11-13T10:43:22.186Z,7.00
2017-11-13T10:45:48.409Z,7.00
2017-11-13T10:48:16.823Z,7.20
2017-11-13T10:50:43.785Z,7.50
2017-11-13T10:53:10.815Z,7.40
2017-11-13T10:55:37.934Z,7.40
2017-11-13T10:58:04.233Z,7.40
2017-11-13T11:00:30.516Z,7.40
2017-11-13T11:02:57.552Z,7.10
2017-11-13T11:05:23.824Z,7.10
2017-11-13T11:07:50.867Z,6.70
2017-11-13T11:10:17.941Z,6.60
2017-11-13T11:12:44.213Z,6.60
2017-11-13T11:18:24.748Z,6.90
2017-11-13T11:20:55.977Z,6.90
2017-11-13T11:23:30.849Z,6.90
2017-11-13T11:26:01.083Z,6.80
2017-11-13T11:28:28.201Z,7.00
2017-11-13T11:31:01.574Z,7.20
2017-11-13T11:33:39.025Z,7.30
2017-11-13T11:36:21.146Z,7.70
2017-11-13T11:38:47.424Z,7.70
2017-11-13T11:41:14.593Z,7.80
2017-11-13T11:43:40.853Z,7.80
2017-11-13T11:46:07.146Z,7.90
2017-11-13T11:48:34.403Z,8.00
2017-11-13T11:51:00.721Z,8.10
2017-11-13T11:53:27.076Z,8.00
2017-11-13T11:55:57.202Z,8.10
2017-11-13T11:58:23.520Z,8.10
2017-11-13T12:00:49.805Z,8.10
2017-11-13T12:03:16.816Z,8.10
2017-11-13T12:05:43.126Z,8.10
2017-11-13T12:08:09.472Z,8.20
2017-11-13T12:10:35.742Z,8.20
2017-11-13T12:13:02.753Z,8.20
2017-11-13T12:15:29.001Z,8.20
2017-11-13T12:17:55.218Z,8.50
2017-11-13T12:20:21.564Z,10.20
2017-11-13T12:22:47.844Z,11.30
2017-11-13T12:25:14.053Z,12.50
2017-11-13T12:27:40.325Z,13.90
2017-11-13T12:30:06.602Z,15.10
2017-11-13T12:32:33.584Z,14.70
2017-11-13T12:34:59.853Z,14.70
2017-11-13T12:37:26.800Z,16.20
2017-11-13T12:39:55.472Z,16.20
2017-11-13T12:42:28.424Z,15.80
2017-11-13T12:44:54.673Z,14.70
2017-11-13T12:47:21.751Z,13.20
2017-11-13T12:49:48.037Z,12.10
2017-11-13T12:52:14.309Z,11.10
2017-11-13T12:54:41.863Z,10.40
2017-11-13T12:57:08.118Z,9.90
2017-11-13T12:59:35.359Z,10.60
2017-11-13T13:02:02.372Z,10.40
2017-11-13T13:04:29.291Z,10.30
2017-11-13T13:06:55.577Z,9.90
2017-11-13T13:09:25.030Z,9.60
2017-11-13T13:11:51.453Z,9.50
2017-11-13T13:14:18.062Z,9.40
2017-11-13T13:16:45.099Z,9.30
2017-11-13T13:19:12.123Z,9.30
2017-11-13T13:21:39.175Z,9.20
2017-11-13T13:24:05.436Z,9.20
2017-11-13T13:26:32.434Z,9.10
2017-11-13T13:28:58.720Z,9.00
2017-11-13T13:31:24.973Z,9.00
2017-11-13T13:33:51.173Z,8.80
2017-11-13T13:36:17.454Z,8.70
2017-11-13T13:38:43.731Z,8.50
2017-11-13T13:41:10.745Z,8.30
2017-11-13T13:43:37.695Z,8.20
2017-11-13T13:46:03.905Z,8.20
2017-11-13T13:48:30.109Z,8.00
2017-11-13T13:50:56.326Z,7.90
2017-11-13T13:53:22.612Z,7.80
2017-11-13T13:55:48.813Z,7.70
2017-11-13T13:58:15.066Z,7.70
2017-11-13T14:00:41.294Z,7.60
2017-11-13T14:03:08.269Z,7.80
2017-11-13T14:05:35.241Z,7.90
2017-11-13T14:08:01.539Z,7.90
2017-11-13T14:10:28.599Z,7.80
2017-11-13T14:12:54.855Z,7.70
2017-11-13T14:15:21.109Z,7.70
2017-11-13T14:17:47.314Z,7.70
2017-11-13T14:20:13.605Z,7.70
2017-11-13T14:22:46.762Z,7.50
2017-11-13T14:25:13.004Z,7.40
2017-11-13T14:27:41.409Z,7.40
2017-11-13T14:30:09.248Z,7.40
2017-11-13T14:32:37.976Z,7.40
2017-11-13T14:35:04.774Z,7.40
2017-11-13T14:37:30.963Z,7.30
2017-11-13T14:39:57.211Z,7.30
2017-11-13T14:42:23.492Z,7.20
2017-11-13T14:44:49.774Z,7.20
2017-11-13T14:47:16.745Z,7.20
2017-11-13T14:49:42.970Z,7.10
2017-11-13T14:52:09.262Z,7.10
2017-11-13T14:54:35.498Z,7.00
2017-11-13T14:57:02.140Z,6.90
2017-11-13T14:59:28.425Z,6.90
2017-11-13T15:01:54.641Z,6.90
2017-11-13T15:04:21.659Z,6.90
2017-11-13T15:06:48.853Z,6.90
2017-11-13T15:09:15.081Z,7.00
2017-11-13T15:11:41.331Z,7.00
2017-11-13T15:14:07.662Z,7.10
2017-11-13T15:16:33.933Z,7.10
2017-11-13T15:19:00.212Z,7.00
2017-11-13T15:21:26.522Z,7.10
2017-11-13T15:23:52.843Z,7.10
2017-11-13T15:26:35.664Z,7.00
2017-11-13T15:29:03.682Z,7.10
2017-11-13T15:31:29.897Z,7.10
2017-11-13T15:33:56.164Z,7.10
2017-11-13T15:36:22.361Z,7.00
2017-11-13T15:38:48.601Z,7.00
2017-11-13T15:41:14.888Z,7.00
2017-11-13T15:43:41.445Z,6.90
2017-11-13T15:46:07.727Z,6.80
2017-11-13T15:48:34.687Z,6.60
2017-11-13T15:51:01.685Z,6.60
2017-11-13T15:53:27.905Z,6.60
2017-11-13T15:55:54.163Z,6.60
2017-11-13T15:58:20.387Z,6.40
2017-11-13T16:00:46.647Z,6.30
2017-11-13T16:03:13.647Z,6.10
2017-11-13T16:05:39.931Z,6.10
2017-11-13T16:08:06.169Z,6.00
2017-11-13T16:10:32.456Z,6.00
2017-11-13T16:12:58.657Z,5.90
2017-11-13T16:15:24.854Z,5.80
2017-11-13T16:17:51.098Z,5.70
2017-11-13T16:20:17.398Z,5.70
2017-11-13T16:22:44.396Z,5.40
2017-11-13T16:25:10.626Z,5.40
2017-11-13T16:27:36.850Z,5.40
2017-11-13T16:30:03.180Z,5.40
2017-11-13T16:32:29.406Z,5.40
2017-11-13T16:34:55.647Z,5.40
2017-11-13T16:37:21.852Z,5.30
2017-11-13T16:39:48.139Z,5.30
2017-11-13T16:42:15.085Z,5.30
2017-11-13T16:44:42.123Z,5.40
2017-11-13T16:47:09.106Z,5.40
2017-11-13T16:49:35.408Z,5.40
2017-11-13T16:52:02.448Z,5.40
2017-11-13T16:54:29.420Z,5.50
2017-11-13T16:56:55.719Z,5.50
2017-11-13T16:59:22.699Z,5.50
2017-11-13T17:01:48.905Z,5.40
2017-11-13T17:04:15.948Z,5.40
2017-11-13T17:06:42.917Z,5.40
2017-11-13T17:09:09.116Z,5.40
2017-11-13T17:11:35.396Z,5.40
2017-11-13T17:14:01.625Z,5.40
2017-11-13T17:16:27.867Z,5.40
2017-11-13T17:18:54.132Z,5.40
2017-11-13T17:21:21.120Z,5.50
2017-11-13T17:23:47.358Z,5.40
2017-11-13T17:26:13.630Z,5.50
2017-11-13T17:28:39.877Z,5.50
2017-11-13T17:31:06.797Z,5.40
2017-11-13T17:33:33.829Z,5.40
2017-11-13T17:36:00.830Z,5.30
2017-11-13T17:38:27.084Z,5.30
2017-11-13T17:40:53.450Z,5.30
2017-11-13T17:43:22.127Z,5.10
2017-11-13T17:45:53.483Z,5.00
2017-11-13T17:48:22.829Z,4.80
2017-11-13T17:50:54.659Z,4.80
2017-11-13T17:53:25.571Z,4.70
2017-11-13T17:55:52.394Z,4.70
2017-11-13T17:58:19.572Z,4.50
2017-11-13T18:00:47.902Z,4.50
2017-11-13T18:03:15.565Z,4.40
2017-11-13T18:08:41.636Z,4.20
2017-11-13T18:11:08.465Z,4.20
2017-11-13T18:13:53.194Z,4.20
2017-11-13T18:16:23.156Z,4.20
2017-11-13T18:18:52.259Z,4.10
2017-11-13T18:21:18.606Z,4.10
2017-11-13T18:23:44.811Z,4.10
2017-11-13T18:26:11.071Z,4.00
2017-11-13T18:28:37.397Z,3.90
2017-11-13T18:31:03.763Z,3.90
2017-11-13T18:33:29.964Z,3.80
2017-11-13T18:35:57.194Z,3.70
2017-11-13T18:38:23.984Z,3.70
2017-11-13T18:40:50.256Z,3.70
2017-11-13T18:43:16.481Z,3.60
2017-11-13T18:45:42.759Z,3.60
2017-11-13T18:48:09.751Z,3.60
2017-11-13T18:50:36.018Z,3.50
2017-11-13T18:53:03.004Z,3.60
2017-11-13T18:55:29.247Z,3.60
2017-11-13T18:57:55.503Z,3.50
2017-11-13T19:00:21.788Z,3.50
2017-11-13T19:02:47.978Z,3.50
2017-11-13T19:05:14.976Z,3.50
2017-11-13T19:07:41.198Z,3.50
2017-11-13T19:10:07.411Z,3.50
2017-11-13T19:12:33.677Z,3.50
2017-11-13T19:14:59.936Z,3.60
2017-11-13T19:17:26.162Z,3.60
2017-11-13T19:19:53.137Z,3.50
2017-11-13T19:22:20.127Z,3.40
2017-11-13T19:24:46.373Z,3.40
2017-11-13T19:27:13.526Z,3.30
2017-11-13T19:29:40.170Z,3.10
2017-11-13T19:32:07.861Z,3.20
2017-11-13T19:34:34.865Z,3.20
2017-11-13T19:37:01.136Z,3.20
2017-11-13T19:39:28.121Z,3.10
2017-11-13T19:41:54.329Z,3.10
2017-11-13T19:44:20.529Z,3.10
2017-11-13T19:46:47.506Z,3.10
2017-11-13T19:49:13.957Z,3.00
2017-11-13T19:51:40.359Z,3.10
2017-11-13T19:54:07.245Z,3.10
2017-11-13T19:56:33.607Z,2.90
2017-11-13T19:59:00.596Z,2.70
2017-11-13T20:01:26.864Z,2.70
2017-11-13T20:03:53.849Z,2.70
2017-11-13T20:06:20.178Z,2.70
2017-11-13T20:08:47.138Z,2.60
2017-11-13T20:11:13.943Z,2.60
2017-11-13T20:13:40.239Z,2.60
2017-11-13T20:16:07.026Z,2.50
2017-11-13T20:18:34.163Z,2.40
2017-11-13T20:21:01.140Z,2.40
2017-11-13T20:23:28.116Z,2.40
2017-11-13T20:25:54.914Z,2.40
2017-11-13T20:28:21.885Z,2.40
2017-11-13T20:30:48.146Z,2.40
2017-11-13T20:33:15.028Z,2.30
2017-11-13T20:35:42.131Z,2.20
2017-11-13T20:38:08.358Z,2.20
2017-11-13T20:40:34.616Z,2.10
2017-11-13T20:43:00.905Z,2.20
2017-11-13T20:45:27.131Z,2.10
2017-11-13T20:47:53.550Z,2.10
2017-11-13T20:50:19.794Z,2.10
2017-11-13T20:52:46.074Z,2.10
2017-11-13T20:55:13.181Z,2.00
2017-11-13T20:57:39.450Z,2.00
2017-11-13T21:00:05.716Z,2.00
2017-11-13T21:02:32.015Z,1.90
2017-11-13T21:04:59.045Z,1.80
2017-11-13T21:07:26.045Z,1.80
2017-11-13T21:09:52.275Z,1.80
2017-11-13T21:12:18.538Z,1.90
2017-11-13T21:14:44.840Z,1.90
2017-11-13T21:17:11.101Z,1.90
2017-11-13T21:19:37.397Z,1.90
2017-11-13T21:22:03.687Z,1.90
2017-11-13T21:24:31.655Z,1.90
2017-11-13T21:26:59.311Z,1.90
2017-11-13T21:29:26.333Z,2.00
2017-11-13T21:31:52.653Z,2.00
2017-11-13T21:34:18.940Z,2.00
2017-11-13T21:36:45.893Z,2.00
2017-11-13T21:39:12.882Z,1.90
2017-11-13T21:41:39.157Z,1.90
2017-11-13T21:44:06.145Z,1.90
2017-11-13T21:46:32.420Z,1.90
2017-11-13T21:48:59.421Z,1.90
2017-11-13T21:51:25.698Z,1.90
2017-11-13T21:53:52.684Z,1.80
2017-11-13T21:56:18.916Z,1.80
2017-11-13T21:58:45.195Z,1.80
2017-11-13T22:01:13.244Z,1.70
2017-11-13T22:03:39.473Z,1.70
2017-11-13T22:06:05.639Z,1.80
2017-11-13T22:08:32.609Z,1.80
2017-11-13T22:10:58.872Z,1.70
2017-11-13T22:13:25.188Z,1.80
2017-11-13T22:15:51.439Z,1.70
2017-11-13T22:18:17.759Z,1.70
2017-11-13T22:20:44.930Z,1.70
2017-11-13T22:23:11.133Z,1.70
2017-11-13T22:25:37.467Z,1.60
2017-11-13T22:28:03.697Z,1.60
2017-11-13T22:30:29.988Z,1.60
2017-11-13T22:32:56.262Z,1.50
2017-11-13T22:35:22.470Z,1.50
2017-11-13T22:37:48.638Z,1.40
2017-11-13T22:40:14.828Z,1.30
2017-11-13T22:42:41.068Z,1.30
2017-11-13T22:45:07.276Z,1.20
2017-11-13T22:47:33.622Z,1.20
2017-11-13T22:49:59.856Z,1.10
2017-11-13T22:52:26.058Z,1.00
2017-11-13T22:54:52.314Z,1.10
2017-11-13T22:57:18.548Z,1.10
2017-11-13T22:59:44.770Z,1.20
2017-11-13T23:02:11.053Z,1.30
2017-11-13T23:04:37.354Z,1.30
2017-11-13T23:07:04.335Z,1.40
2017-11-13T23:09:30.582Z,1.40
2017-11-13T23:11:56.851Z,1.30
2017-11-13T23:14:23.092Z,1.30
2017-11-13T23:16:49.388Z,1.30
2017-11-13T23:19:15.581Z,1.30
2017-11-13T23:21:41.827Z,1.40
2017-11-13T23:24:08.072Z,1.40
2017-11-13T23:26:34.338Z,1.60
2017-11-13T23:29:01.361Z,1.60
2017-11-13T23:31:27.660Z,1.70
2017-11-13T23:33:53.919Z,1.70
2017-11-13T23:36:20.208Z,1.70
2017-11-13T23:38:46.520Z,1.70
2017-11-13T23:41:13.540Z,1.70
2017-11-13T23:43:40.516Z,1.60
2017-11-13T23:46:06.761Z,1.60
2017-11-13T23:48:32.984Z,1.60
2017-11-13T23:50:59.200Z,1.60
2017-11-13T23:53:26.261Z,1.70
2017-11-13T23:55:52.521Z,1.70
2017-11-13T23:58:18.716Z,1.70
